Time;durP1;ratioP1;P1;durP2;ratioP2;P2;SDS_P1;SDS_P2;PMS_P1;PMS_P2;Temp;Humidity;BMP_temperature;BMP_pressure;BME280_temperature;BME280_humidity;BME280_pressure;Samples;Min_cycle;Max_cycle;Signal;HPM_P1;HPM_P2
2022/12/19 09:20:25;;;;;;;5.30;4.13;;;2.00;99.90;;;;;;5142590;27;20290;-82
2022/12/19 09:22:52;;;;;;;6.87;5.33;;;2.00;99.90;;;;;;5124603;28;20448;-83
2022/12/19 09:25:17;;;;;;;7.03;4.77;;;2.00;99.90;;;;;;5124504;28;20175;-82
2022/12/19 09:27:43;;;;;;;6.57;4.67;;;2.00;99.90;;;;;;5136738;28;20432;-82
2022/12/19 09:30:11;;;;;;;8.10;4.83;;;2.10;99.90;;;;;;5142159;27;20190;-82
2022/12/19 09:32:37;;;;;;;5.93;4.40;;;2.10;99.90;;;;;;5141983;28;20182;-82
2022/12/19 09:35:03;;;;;;;8.07;5.60;;;2.10;99.90;;;;;;5143136;27;20400;-83
2022/12/19 09:37:29;;;;;;;7.73;5.27;;;2.10;99.90;;;;;;5143400;27;20585;-83
2022/12/19 09:39:55;;;;;;;6.83;4.93;;;2.20;99.90;;;;;;5143713;27;20982;-82
2022/12/19 09:42:39;;;;;;;7.80;5.67;;;2.20;99.90;;;;;;5142315;28;20176;-82
2022/12/19 09:45:21;;;;;;;8.37;5.10;;;2.10;99.90;;;;;;5143943;28;20514;-82
2022/12/19 09:47:47;;;;;;;8.27;5.40;;;2.20;99.90;;;;;;5144834;27;20416;-82
2022/12/19 09:50:29;;;;;;;8.33;5.33;;;2.30;99.90;;;;;;5143211;28;20413;-82
2022/12/19 09:53:04;;;;;;;5.47;4.33;;;2.40;99.90;;;;;;5145621;28;20540;-83
2022/12/19 09:55:40;;;;;;;7.37;4.47;;;2.50;99.90;;;;;;5149505;28;20404;-82
2022/12/19 09:58:23;;;;;;;6.90;5.17;;;2.50;99.90;;;;;;5145234;28;20450;-82
2022/12/19 10:00:57;;;;;;;6.90;4.90;;;2.60;99.90;;;;;;5141431;28;20504;-82
2022/12/19 10:03:32;;;;;;;7.63;4.77;;;2.50;99.90;;;;;;5142170;28;20445;-82
2022/12/19 10:06:18;;;;;;;4.23;3.50;;;2.70;99.90;;;;;;5143545;27;20396;-82
2022/12/19 10:08:44;;;;;;;7.87;4.67;;;2.90;99.90;;;;;;5139649;28;20494;-82
2022/12/19 10:11:41;;;;;;;6.23;4.70;;;3.10;99.90;;;;;;5138063;28;20851;-82
2022/12/19 10:14:18;;;;;;;5.80;4.30;;;3.40;99.90;;;;;;5138571;28;20912;-83
2022/12/19 10:17:03;;;;;;;6.30;4.07;;;3.80;99.90;;;;;;5137860;28;20436;-83
2022/12/19 10:19:44;;;;;;;4.60;3.70;;;3.90;99.90;;;;;;5139700;27;20464;-83
2022/12/19 10:22:47;;;;;;;5.17;4.40;;;4.00;99.90;;;;;;5138230;28;20418;-82
2022/12/19 10:25:19;;;;;;;6.57;3.97;;;4.10;99.90;;;;;;5137461;28;20408;-83
2022/12/19 10:28:06;;;;;;;5.23;3.20;;;4.30;99.90;;;;;;5137321;28;20198;-83
2022/12/19 10:30:43;;;;;;;5.63;3.40;;;4.50;99.90;;;;;;5133016;27;20206;-83
2022/12/19 10:33:15;;;;;;;3.80;3.10;;;4.50;99.90;;;;;;5126204;28;20177;-82
2022/12/19 10:35:44;;;;;;;5.10;3.23;;;4.40;99.90;;;;;;5126284;28;20179;-83
2022/12/19 10:38:39;;;;;;;4.83;3.63;;;4.40;99.90;;;;;;5123969;28;20320;-83
2022/12/19 10:41:22;;;;;;;6.57;5.40;;;4.60;99.90;;;;;;5124477;28;20217;-83
2022/12/19 10:43:51;;;;;;;5.73;5.13;;;4.90;99.90;;;;;;5126407;28;20686;-84
2022/12/19 10:46:24;;;;;;;4.63;3.63;;;5.30;99.90;;;;;;5123686;28;20205;-83
2022/12/19 10:48:52;;;;;;;4.30;3.23;;;5.40;99.90;;;;;;5125998;28;20681;-83
2022/12/19 10:51:25;;;;;;;4.80;3.37;;;5.30;99.90;;;;;;5126577;28;20717;-83
2022/12/19 10:53:59;;;;;;;4.13;3.40;;;5.50;99.90;;;;;;5123376;28;20167;-83
2022/12/19 10:56:29;;;;;;;4.70;3.23;;;5.40;99.90;;;;;;5125927;28;20272;-83
2022/12/19 10:58:57;;;;;;;5.73;3.97;;;5.10;99.90;;;;;;5124249;28;20204;-83
2022/12/19 11:01:33;;;;;;;5.03;4.13;;;4.60;99.90;;;;;;5124273;28;20176;-83
2022/12/19 11:04:18;;;;;;;8.10;4.23;;;4.40;99.90;;;;;;5125312;28;20223;-83
2022/12/19 11:07:02;;;;;;;7.03;4.63;;;4.20;99.90;;;;;;5123747;28;20534;-83
2022/12/19 11:09:42;;;;;;;7.03;4.80;;;4.30;99.90;;;;;;5124599;28;20178;-83
2022/12/19 11:12:10;;;;;;;7.50;5.10;;;4.20;99.90;;;;;;5124316;28;20175;-83
2022/12/19 11:14:42;;;;;;;10.70;5.23;;;4.30;99.90;;;;;;5123957;28;20204;-83
2022/12/19 11:17:35;;;;;;;8.40;4.97;;;4.40;99.90;;;;;;5125206;28;20194;-85
2022/12/19 11:20:22;;;;;;;9.53;4.53;;;4.10;99.90;;;;;;5122605;28;20203;-83
2022/12/19 11:22:55;;;;;;;6.93;4.73;;;3.80;99.90;;;;;;5124646;28;20228;-83
2022/12/19 11:25:29;;;;;;;9.37;6.43;;;3.70;99.90;;;;;;5126711;28;20172;-83
2022/12/19 11:27:55;;;;;;;8.73;5.37;;;3.70;99.90;;;;;;5122591;28;20301;-83
2022/12/19 11:30:25;;;;;;;5.40;4.30;;;3.90;99.90;;;;;;5122181;28;20584;-82
2022/12/19 11:33:26;;;;;;;6.10;4.43;;;3.80;99.90;;;;;;5125457;28;20196;-83
2022/12/19 11:35:55;;;;;;;7.70;4.73;;;3.60;99.90;;;;;;5067267;28;20180;-82
2022/12/19 11:38:51;;;;;;;8.67;4.60;;;3.50;99.90;;;;;;5118786;28;20220;-83
2022/12/19 11:41:31;;;;;;;10.27;4.10;;;3.40;99.90;;;;;;5125759;28;20168;-83
2022/12/19 11:44:18;;;;;;;7.17;4.83;;;3.50;99.90;;;;;;5125488;28;20409;-83
2022/12/19 11:47:23;;;;;;;7.77;4.30;;;3.70;99.90;;;;;;5126813;28;20198;-83
2022/12/19 11:49:58;;;;;;;7.97;4.77;;;3.70;99.90;;;;;;5126268;28;20317;-82
2022/12/19 11:53:08;;;;;;;10.20;5.27;;;3.70;99.90;;;;;;5127825;28;20152;-83
2022/12/19 11:55:51;;;;;;;6.00;3.97;;;3.70;99.90;;;;;;5111389;28;20497;-83
2022/12/19 11:58:17;;;;;;;9.03;5.63;;;3.80;99.90;;;;;;5125077;28;20788;-83
2022/12/19 12:00:54;;;;;;;6.73;4.40;;;3.80;99.90;;;;;;5128643;28;20428;-83
2022/12/19 12:03:20;;;;;;;7.77;5.07;;;3.80;99.90;;;;;;5126980;28;20178;-83
2022/12/19 12:05:47;;;;;;;8.43;6.00;;;4.00;99.90;;;;;;5131735;28;20191;-83
2022/12/19 12:08:34;;;;;;;8.67;5.43;;;4.10;99.90;;;;;;5129194;28;20584;-83
2022/12/19 12:11:06;;;;;;;11.80;5.70;;;4.30;99.90;;;;;;5125326;28;20167;-84
2022/12/19 12:14:13;;;;;;;8.87;6.03;;;4.40;99.90;;;;;;5124257;28;20182;-84
2022/12/19 12:16:56;;;;;;;10.53;5.67;;;4.50;99.90;;;;;;5125518;28;20218;-84
2022/12/19 12:19:49;;;;;;;11.83;5.73;;;4.50;99.90;;;;;;5125700;28;20468;-85
2022/12/19 12:22:45;;;;;;;8.00;5.83;;;4.60;99.90;;;;;;5114405;28;20180;-84
2022/12/19 12:25:22;;;;;;;8.73;5.87;;;4.50;99.90;;;;;;5126053;28;20499;-85
2022/12/19 12:27:56;;;;;;;12.73;5.73;;;4.60;99.90;;;;;;5125739;28;20417;-85
2022/12/19 12:30:23;;;;;;;8.37;5.73;;;4.70;99.90;;;;;;5124651;28;20440;-85
2022/12/19 12:33:03;;;;;;;9.93;6.17;;;4.70;99.90;;;;;;5125241;28;20477;-85
2022/12/19 12:35:38;;;;;;;22.23;5.90;;;4.50;99.90;;;;;;5123746;28;20433;-84
2022/12/19 12:38:31;;;;;;;6.13;4.43;;;4.30;99.90;;;;;;5121711;28;20194;-84
2022/12/19 12:41:00;;;;;;;12.60;4.70;;;4.30;99.90;;;;;;5121474;28;20177;-83
2022/12/19 12:43:56;;;;;;;5.33;4.00;;;4.20;99.90;;;;;;5122214;28;20238;-83
2022/12/19 12:46:37;;;;;;;6.87;5.10;;;4.00;99.90;;;;;;5121564;28;20267;-85
2022/12/19 12:49:14;;;;;;;6.10;4.70;;;4.10;99.90;;;;;;5123085;28;20161;-84
2022/12/19 12:51:40;;;;;;;7.50;5.87;;;4.20;99.90;;;;;;5124909;28;20225;-82
2022/12/19 12:54:11;;;;;;;11.13;6.00;;;4.10;99.90;;;;;;5124753;28;20187;-84
2022/12/19 12:56:38;;;;;;;8.23;5.30;;;4.10;99.90;;;;;;5123648;27;20210;-83
2022/12/19 12:59:19;;;;;;;8.30;6.37;;;4.10;99.90;;;;;;5133280;27;20579;-84
2022/12/19 13:02:13;;;;;;;8.70;6.07;;;4.10;99.90;;;;;;5139230;27;20637;-82
2022/12/19 13:04:52;;;;;;;8.63;5.80;;;4.10;99.90;;;;;;5139089;27;20176;-82
2022/12/19 13:07:39;;;;;;;10.77;5.80;;;4.00;99.90;;;;;;5142596;27;20193;-83
2022/12/19 13:10:18;;;;;;;10.83;5.80;;;3.90;99.90;;;;;;5146114;27;20612;-85
2022/12/19 13:13:06;;;;;;;10.07;5.43;;;3.70;99.90;;;;;;5143234;27;20222;-84
2022/12/19 13:15:42;;;;;;;10.20;6.73;;;3.70;99.90;;;;;;5144140;27;20167;-84
2022/12/19 13:18:29;;;;;;;10.73;6.53;;;3.70;99.90;;;;;;5144837;28;20264;-84
2022/12/19 13:20:55;;;;;;;8.37;5.70;;;3.60;99.90;;;;;;5144202;28;20172;-84
2022/12/19 13:23:40;;;;;;;10.50;7.00;;;3.50;99.90;;;;;;5146021;28;20183;-85
2022/12/19 13:26:38;;;;;;;7.70;5.90;;;3.50;99.90;;;;;;5145848;28;20171;-84
2022/12/19 13:29:32;;;;;;;9.83;6.90;;;3.60;99.90;;;;;;5146415;28;20205;-84
2022/12/19 13:32:13;;;;;;;9.53;6.17;;;3.50;99.90;;;;;;5142005;28;20191;-84
2022/12/19 13:34:50;;;;;;;7.80;5.60;;;3.50;99.90;;;;;;5144309;28;20200;-84
2022/12/19 13:37:18;;;;;;;8.33;5.70;;;3.60;99.90;;;;;;5144231;28;20203;-84
2022/12/19 13:40:22;;;;;;;8.93;6.77;;;3.60;99.90;;;;;;5142089;28;20628;-81
2022/12/19 13:45:52;;;;;;;10.30;7.47;;;3.60;99.90;;;;;;5145342;28;20162;-84
2022/12/19 13:48:36;;;;;;;13.27;8.47;;;3.60;99.90;;;;;;5142514;28;20192;-83
2022/12/19 13:51:08;;;;;;;13.40;7.77;;;3.60;99.90;;;;;;5140087;28;20173;-83
2022/12/19 13:53:34;;;;;;;8.57;5.97;;;3.70;99.90;;;;;;5138280;28;20176;-80
2022/12/19 13:56:07;;;;;;;11.00;6.93;;;3.60;99.90;;;;;;5136152;28;20247;-81
2022/12/19 13:58:53;;;;;;;8.47;6.87;;;3.50;99.90;;;;;;5138115;28;20269;-81
2022/12/19 14:01:34;;;;;;;10.83;7.27;;;3.50;99.90;;;;;;5140517;28;20153;-82
2022/12/19 14:04:14;;;;;;;12.67;9.23;;;3.50;99.90;;;;;;5138966;28;20172;-82
2022/12/19 14:06:45;;;;;;;11.53;8.27;;;3.40;99.90;;;;;;5143042;27;20199;-83
2022/12/19 14:09:26;;;;;;;10.80;7.93;;;3.40;99.90;;;;;;5145305;27;20205;-82
2022/12/19 14:11:56;;;;;;;11.63;8.23;;;3.30;99.90;;;;;;5143865;27;20240;-83
2022/12/19 14:17:11;;;;;;;17.10;10.47;;;3.30;99.90;;;;;;5146770;27;20753;-81
2022/12/19 14:19:40;;;;;;;29.40;18.60;;;3.30;99.90;;;;;;5146174;27;20281;-82
2022/12/19 14:22:15;;;;;;;49.87;30.10;;;3.20;99.90;;;;;;5146288;27;20237;-81
2022/12/19 14:25:02;;;;;;;43.03;27.77;;;3.10;99.90;;;;;;5144431;27;20204;-82
2022/12/19 14:27:39;;;;;;;23.20;15.33;;;3.10;99.90;;;;;;5150465;27;20199;-81
2022/12/19 14:30:14;;;;;;;20.20;12.63;;;3.10;99.90;;;;;;5154460;27;20191;-81
2022/12/19 14:32:40;;;;;;;22.53;12.03;;;3.10;99.90;;;;;;5150462;27;20167;-82
2022/12/19 14:35:09;;;;;;;14.83;10.23;;;3.10;99.90;;;;;;5146934;27;20176;-81
2022/12/19 14:37:42;;;;;;;16.60;11.03;;;3.00;99.90;;;;;;5145293;27;20679;-81
2022/12/19 14:40:29;;;;;;;18.43;12.50;;;2.90;99.90;;;;;;5145979;27;20228;-81
2022/12/19 14:45:53;;;;;;;18.77;11.50;;;2.70;99.90;;;;;;5146878;27;20195;-81
2022/12/19 14:48:31;;;;;;;16.87;10.33;;;2.70;99.90;;;;;;5145677;27;20196;-82
2022/12/19 14:51:13;;;;;;;20.73;10.77;;;2.70;99.90;;;;;;5144280;27;20178;-81
2022/12/19 14:53:59;;;;;;;16.13;9.90;;;2.60;99.90;;;;;;5143769;27;20414;-81
2022/12/19 14:56:27;;;;;;;14.63;9.37;;;2.60;99.90;;;;;;5144378;27;20649;-81
2022/12/19 14:58:56;;;;;;;17.80;9.53;;;2.60;99.90;;;;;;5145897;27;20529;-81
2022/12/19 15:01:31;;;;;;;13.13;8.63;;;2.50;99.90;;;;;;5144266;27;20181;-81
2022/12/19 15:04:14;;;;;;;11.83;7.97;;;2.50;99.90;;;;;;5145917;27;20175;-81
2022/12/19 15:06:44;;;;;;;12.23;8.30;;;2.40;99.90;;;;;;5144971;27;20198;-82
2022/12/19 15:09:16;;;;;;;12.33;7.60;;;2.40;99.90;;;;;;5143477;27;20186;-81
2022/12/19 15:14:45;;;;;;;50.93;31.60;;;2.40;99.90;;;;;;5145565;27;20404;-81
2022/12/19 15:17:23;;;;;;;22.37;14.33;;;2.30;99.90;;;;;;5142287;27;20447;-81
2022/12/19 15:19:50;;;;;;;21.53;14.33;;;2.30;99.90;;;;;;5148170;27;20259;-81
2022/12/19 15:22:17;;;;;;;16.10;12.20;;;2.30;99.90;;;;;;5145657;27;20736;-81
2022/12/19 15:24:43;;;;;;;13.60;10.47;;;2.30;99.90;;;;;;5143274;27;20430;-80
2022/12/19 15:27:13;;;;;;;17.87;11.93;;;2.30;99.90;;;;;;5149537;27;20198;-81
2022/12/19 15:29:39;;;;;;;24.47;14.60;;;2.30;99.90;;;;;;5140305;27;20175;-81
2022/12/19 15:32:05;;;;;;;27.03;16.50;;;2.30;99.90;;;;;;5140161;27;20223;-80
2022/12/19 15:34:34;;;;;;;17.93;10.37;;;2.30;99.90;;;;;;5140276;27;20182;-81
2022/12/19 15:37:01;;;;;;;16.80;12.10;;;2.30;99.90;;;;;;5140147;27;20539;-81
2022/12/19 15:39:28;;;;;;;14.97;11.13;;;2.30;99.90;;;;;;5142156;27;20976;-81
2022/12/19 15:41:56;;;;;;;12.33;8.97;;;2.30;99.90;;;;;;5140522;27;20417;-80
2022/12/19 15:44:32;;;;;;;16.43;10.23;;;2.30;99.90;;;;;;5141518;27;20175;-81
2022/12/19 15:46:59;;;;;;;16.53;10.70;;;2.20;99.90;;;;;;5139866;27;20194;-80
2022/12/19 15:49:25;;;;;;;17.93;12.10;;;2.20;99.90;;;;;;5139840;27;20183;-80
2022/12/19 15:51:51;;;;;;;18.30;11.60;;;2.20;99.90;;;;;;5139454;27;20199;-80
2022/12/19 15:54:17;;;;;;;9.87;8.27;;;2.20;99.90;;;;;;5141071;27;20176;-80
2022/12/19 15:56:47;;;;;;;12.23;9.47;;;2.10;99.90;;;;;;5142125;27;20257;-80
2022/12/19 15:59:30;;;;;;;14.20;9.00;;;2.00;99.90;;;;;;5140685;27;20195;-80
2022/12/19 16:01:56;;;;;;;12.53;9.10;;;2.00;99.90;;;;;;5140596;27;20575;-80
2022/12/19 16:04:23;;;;;;;10.70;8.10;;;2.00;99.90;;;;;;5140403;27;21041;-81
2022/12/19 16:06:49;;;;;;;10.83;7.37;;;2.10;99.90;;;;;;5143217;27;20190;-81
2022/12/19 16:09:26;;;;;;;15.30;9.53;;;2.00;99.90;;;;;;5140676;27;20490;-81
2022/12/19 16:11:53;;;;;;;14.27;8.50;;;2.10;99.90;;;;;;5142256;27;20203;-80
2022/12/19 16:14:20;;;;;;;14.73;9.40;;;2.10;99.90;;;;;;5140331;27;20416;-81
2022/12/19 16:16:51;;;;;;;15.10;9.80;;;2.00;99.90;;;;;;5140709;27;20209;-81
2022/12/19 16:19:29;;;;;;;15.70;9.90;;;2.00;99.90;;;;;;5141723;27;20233;-81
2022/12/19 16:21:56;;;;;;;20.17;10.07;;;2.00;99.90;;;;;;5142321;27;20175;-79
2022/12/19 16:24:22;;;;;;;18.67;8.30;;;2.00;99.90;;;;;;5142637;27;20171;-80
2022/12/19 16:26:56;;;;;;;15.00;8.13;;;2.00;99.90;;;;;;5142255;27;20190;-81
2022/12/19 16:29:27;;;;;;;13.30;7.60;;;2.10;99.90;;;;;;5141465;27;20623;-80
2022/12/19 16:31:54;;;;;;;10.77;6.80;;;2.00;99.90;;;;;;5140907;27;20169;-81
2022/12/19 16:34:22;;;;;;;8.83;5.97;;;2.10;99.90;;;;;;5140322;27;20940;-81
2022/12/19 16:36:49;;;;;;;8.47;5.27;;;2.10;99.90;;;;;;5140795;27;20436;-82
2022/12/19 16:39:15;;;;;;;7.00;4.80;;;2.10;99.90;;;;;;5138026;27;20456;-79
2022/12/19 16:41:42;;;;;;;6.80;5.07;;;2.20;99.90;;;;;;5140662;27;20196;-81
2022/12/19 16:44:20;;;;;;;6.87;5.47;;;2.30;99.90;;;;;;5141594;27;20413;-81
2022/12/19 16:46:48;;;;;;;8.17;6.27;;;2.30;99.90;;;;;;5140415;27;20439;-80
2022/12/19 16:49:21;;;;;;;8.20;5.90;;;2.30;99.90;;;;;;5140413;27;20189;-80
2022/12/19 16:51:47;;;;;;;7.70;4.87;;;2.30;99.90;;;;;;5141121;27;20651;-80
2022/12/19 16:54:14;;;;;;;10.17;6.47;;;2.20;99.90;;;;;;5139640;27;20191;-80
2022/12/19 16:56:50;;;;;;;8.13;5.83;;;2.30;99.90;;;;;;5139220;27;20543;-80
2022/12/19 16:59:30;;;;;;;7.27;5.73;;;2.30;99.90;;;;;;5139781;27;20987;-80
2022/12/19 17:01:58;;;;;;;11.33;6.50;;;2.40;99.90;;;;;;5139702;27;20174;-80
2022/12/19 17:04:26;;;;;;;7.13;5.50;;;2.40;99.90;;;;;;5137268;27;20185;-80
2022/12/19 17:06:52;;;;;;;19.10;12.10;;;2.40;99.90;;;;;;5137007;27;20437;-80
2022/12/19 17:09:21;;;;;;;19.40;11.70;;;2.50;99.90;;;;;;5136461;27;20420;-80
2022/12/19 17:11:54;;;;;;;17.93;13.17;;;2.50;99.90;;;;;;5135955;28;20624;-81
2022/12/19 17:14:23;;;;;;;9.00;6.87;;;2.50;99.90;;;;;;5136775;27;20413;-80
2022/12/19 17:16:53;;;;;;;8.50;7.00;;;2.50;99.90;;;;;;5136470;27;20286;-81
2022/12/19 17:19:24;;;;;;;9.57;6.70;;;2.50;99.90;;;;;;5134391;28;20215;-80
2022/12/19 17:21:51;;;;;;;9.30;6.43;;;2.40;99.90;;;;;;5137554;28;20495;-81
2022/12/19 17:24:17;;;;;;;7.73;5.30;;;2.40;99.90;;;;;;5135224;28;20452;-81
2022/12/19 17:26:44;;;;;;;9.67;6.80;;;2.40;99.90;;;;;;5135321;28;20210;-80
2022/12/19 17:29:10;;;;;;;7.43;6.10;;;2.40;99.90;;;;;;5136593;27;20641;-80
2022/12/19 17:31:38;;;;;;;8.90;6.03;;;2.40;99.90;;;;;;5137429;28;20181;-80
2022/12/19 17:34:16;;;;;;;7.77;6.30;;;2.40;99.90;;;;;;5136512;28;20450;-80
2022/12/19 17:36:43;;;;;;;10.30;6.90;;;2.50;99.90;;;;;;5136883;28;20538;-80
2022/12/19 17:39:22;;;;;;;9.97;6.80;;;2.50;99.90;;;;;;5136612;27;20730;-80
2022/12/19 17:41:49;;;;;;;9.97;6.33;;;2.50;99.90;;;;;;5138798;27;20166;-80
2022/12/19 17:44:15;;;;;;;11.20;6.77;;;2.50;99.90;;;;;;5141437;27;20436;-81
2022/12/19 17:46:41;;;;;;;14.10;7.50;;;2.50;99.90;;;;;;5142829;27;20478;-80
2022/12/19 17:49:29;;;;;;;15.73;10.00;;;2.40;99.90;;;;;;5143850;27;20179;-80
2022/12/19 17:51:57;;;;;;;9.00;7.10;;;2.30;99.90;;;;;;5142683;27;20494;-80
2022/12/19 17:54:23;;;;;;;15.90;9.70;;;2.30;99.90;;;;;;5140892;27;20413;-80
2022/12/19 17:56:49;;;;;;;51.93;29.63;;;2.30;99.90;;;;;;5141489;27;20302;-80
2022/12/19 17:59:15;;;;;;;83.43;44.67;;;2.20;99.90;;;;;;5140852;27;20905;-80
2022/12/19 18:01:42;;;;;;;61.13;39.10;;;2.20;99.90;;;;;;5140122;27;20171;-80
2022/12/19 18:04:18;;;;;;;51.97;35.67;;;2.20;99.90;;;;;;5139195;27;20175;-80
2022/12/19 18:06:45;;;;;;;50.67;30.20;;;2.10;99.90;;;;;;5138379;27;20458;-80
2022/12/19 18:09:16;;;;;;;32.07;22.97;;;2.20;99.90;;;;;;5137955;27;20519;-80
2022/12/19 18:11:43;;;;;;;17.03;10.63;;;2.20;99.90;;;;;;5141128;27;20541;-80
2022/12/19 18:14:10;;;;;;;11.53;7.53;;;2.30;99.90;;;;;;5142647;27;20408;-80
2022/12/19 18:16:36;;;;;;;13.93;7.87;;;2.30;99.90;;;;;;5141541;27;20464;-81
2022/12/19 18:19:03;;;;;;;12.13;7.97;;;2.40;99.90;;;;;;5143157;27;20460;-81
2022/12/19 18:21:29;;;;;;;22.43;12.87;;;2.40;99.90;;;;;;5141319;27;20174;-80
